Time;durP1;ratioP1;P1;durP2;ratioP2;P2;SDS_P1;SDS_P2;PMS_P1;PMS_P2;Temp;Humidity;BMP_temperature;BMP_pressure;BME280_temperature;BME280_humidity;BME280_pressure;Samples;Min_cycle;Max_cycle;Signal;HPM_P1;HPM_P2
2021/05/29 00:01:42;;;;;;;17.10;4.65;;;;;;;;;;10278051;28;20073;-62
2021/05/29 00:06:40;;;;;;;10.70;4.88;;;;;;;;;;10279384;28;20045;-62
2021/05/29 00:11:37;;;;;;;8.65;5.07;;;;;;;;;;10279668;28;20049;-63
2021/05/29 00:16:36;;;;;;;9.25;4.38;;;;;;;;;;10278843;28;20084;-63
2021/05/29 00:21:34;;;;;;;6.32;4.07;;;;;;;;;;10278049;28;20047;-62
2021/05/29 00:26:32;;;;;;;13.10;4.40;;;;;;;;;;10278629;28;20429;-63
2021/05/29 00:31:30;;;;;;;6.97;4.03;;;;;;;;;;10278256;28;20053;-62
2021/05/29 00:36:29;;;;;;;16.73;4.30;;;;;;;;;;10278309;28;20080;-63
2021/05/29 00:41:27;;;;;;;9.55;4.45;;;;;;;;;;10277729;28;20067;-63
2021/05/29 00:46:25;;;;;;;12.43;3.88;;;;;;;;;;10277170;28;20048;-62
2021/05/29 00:51:23;;;;;;;8.50;4.10;;;;;;;;;;10276541;28;20443;-63
2021/05/29 00:56:23;;;;;;;5.95;3.97;;;;;;;;;;10277167;28;20468;-63
2021/05/29 01:01:21;;;;;;;5.13;4.03;;;;;;;;;;10277184;28;20636;-63
2021/05/29 01:06:19;;;;;;;7.97;3.83;;;;;;;;;;10276402;28;20166;-63
2021/05/29 01:11:17;;;;;;;6.03;3.80;;;;;;;;;;10276063;28;20049;-62
2021/05/29 01:16:30;;;;;;;13.48;4.65;;;;;;;;;;10276203;28;20198;-64
2021/05/29 01:21:28;;;;;;;4.47;3.88;;;;;;;;;;10276704;28;20052;-62
2021/05/29 01:26:27;;;;;;;5.03;3.97;;;;;;;;;;10275870;28;20073;-63
2021/05/29 01:31:29;;;;;;;10.45;3.72;;;;;;;;;;10275672;28;20045;-63
2021/05/29 01:36:27;;;;;;;13.85;3.95;;;;;;;;;;10275785;28;20080;-63
2021/05/29 01:41:25;;;;;;;4.78;3.60;;;;;;;;;;10275875;28;20045;-63
2021/05/29 01:46:23;;;;;;;9.98;3.83;;;;;;;;;;10275472;28;20053;-63
2021/05/29 01:51:23;;;;;;;11.15;3.75;;;;;;;;;;10275790;28;20045;-64
2021/05/29 01:56:20;;;;;;;10.15;5.32;;;;;;;;;;10275456;28;20072;-63
2021/05/29 02:01:18;;;;;;;11.27;3.65;;;;;;;;;;10275242;28;20065;-62
2021/05/29 02:06:17;;;;;;;7.90;4.15;;;;;;;;;;10273346;28;20072;-63
2021/05/29 02:11:15;;;;;;;11.32;4.32;;;;;;;;;;10275734;28;20037;-63
2021/05/29 02:16:13;;;;;;;5.68;3.83;;;;;;;;;;10274957;28;20083;-62
2021/05/29 02:21:12;;;;;;;12.88;4.32;;;;;;;;;;10275148;28;20187;-63
2021/05/29 02:26:12;;;;;;;6.88;3.72;;;;;;;;;;10280812;28;20413;-63
2021/05/29 02:31:11;;;;;;;11.65;3.40;;;;;;;;;;10283032;28;20041;-62
2021/05/29 02:36:09;;;;;;;9.15;4.03;;;;;;;;;;10282446;28;20088;-62
2021/05/29 02:41:09;;;;;;;9.93;3.75;;;;;;;;;;10282424;28;20085;-62
2021/05/29 02:46:08;;;;;;;21.30;5.60;;;;;;;;;;10282096;28;20045;-63
2021/05/29 02:51:06;;;;;;;8.30;4.38;;;;;;;;;;10282413;28;20045;-62
2021/05/29 02:56:04;;;;;;;9.13;4.15;;;;;;;;;;10281605;28;20078;-63
2021/05/29 03:01:02;;;;;;;7.15;3.90;;;;;;;;;;10280735;28;20093;-63
2021/05/29 03:06:01;;;;;;;6.10;3.63;;;;;;;;;;10281564;28;20048;-63
2021/05/29 03:10:59;;;;;;;10.38;3.70;;;;;;;;;;10281200;28;20052;-63
2021/05/29 03:15:57;;;;;;;7.07;3.95;;;;;;;;;;10280632;28;20041;-62
2021/05/29 03:20:55;;;;;;;7.25;4.05;;;;;;;;;;10281050;28;20068;-63
2021/05/29 03:25:54;;;;;;;7.00;3.72;;;;;;;;;;10280533;28;20091;-63
2021/05/29 03:30:52;;;;;;;7.72;3.90;;;;;;;;;;10280400;28;20080;-63
2021/05/29 03:35:50;;;;;;;10.40;4.43;;;;;;;;;;10279191;28;20045;-63
2021/05/29 03:40:48;;;;;;;9.02;4.93;;;;;;;;;;10280074;28;20506;-62
2021/05/29 03:45:47;;;;;;;10.32;4.53;;;;;;;;;;10280250;28;20052;-62
2021/05/29 03:50:45;;;;;;;11.73;4.32;;;;;;;;;;10280057;28;20060;-62
2021/05/29 03:55:42;;;;;;;11.00;4.07;;;;;;;;;;10279365;28;20045;-63
2021/05/29 04:00:40;;;;;;;8.85;5.00;;;;;;;;;;10277866;28;20079;-62
2021/05/29 04:05:39;;;;;;;5.30;3.58;;;;;;;;;;10277885;28;20076;-62
2021/05/29 04:10:37;;;;;;;6.20;3.85;;;;;;;;;;10272686;28;20048;-62
2021/05/29 04:15:35;;;;;;;6.28;3.78;;;;;;;;;;10275227;28;20072;-62
2021/05/29 04:20:33;;;;;;;7.13;4.40;;;;;;;;;;10276883;28;20080;-62
2021/05/29 04:25:32;;;;;;;11.75;4.68;;;;;;;;;;10277707;28;20048;-62
2021/05/29 04:30:30;;;;;;;7.28;4.82;;;;;;;;;;10259555;28;20068;-62
2021/05/29 04:35:28;;;;;;;6.80;4.65;;;;;;;;;;10277011;28;20049;-63
2021/05/29 04:40:26;;;;;;;5.15;4.65;;;;;;;;;;10271927;28;20518;-62
2021/05/29 04:45:25;;;;;;;7.85;5.10;;;;;;;;;;10272211;28;20080;-62
2021/05/29 04:50:23;;;;;;;8.48;4.65;;;;;;;;;;10275446;28;20084;-62
2021/05/29 04:55:22;;;;;;;5.55;4.45;;;;;;;;;;10275779;28;20041;-63
2021/05/29 05:00:20;;;;;;;5.35;4.88;;;;;;;;;;10274970;28;20069;-62
2021/05/29 05:05:18;;;;;;;5.05;4.57;;;;;;;;;;10275539;28;20060;-62
2021/05/29 05:10:16;;;;;;;5.65;4.82;;;;;;;;;;10275136;28;20069;-62
2021/05/29 05:15:15;;;;;;;6.72;4.72;;;;;;;;;;10273342;28;20040;-62
2021/05/29 05:20:13;;;;;;;8.45;4.47;;;;;;;;;;10274438;28;20077;-63
2021/05/29 05:25:13;;;;;;;12.27;4.68;;;;;;;;;;10274229;28;20049;-63
2021/05/29 05:30:12;;;;;;;10.70;4.85;;;;;;;;;;10274190;28;20045;-63
2021/05/29 05:35:14;;;;;;;6.03;4.30;;;;;;;;;;10274211;28;20073;-61
2021/05/29 05:40:13;;;;;;;7.00;4.90;;;;;;;;;;10273984;28;20074;-61
2021/05/29 05:45:12;;;;;;;6.20;3.85;;;;;;;;;;10274266;28;20088;-62
2021/05/29 05:50:12;;;;;;;4.57;4.03;;;;;;;;;;10273986;28;20049;-62
2021/05/29 05:55:11;;;;;;;6.05;3.70;;;;;;;;;;10268778;28;20040;-62
2021/05/29 06:00:11;;;;;;;5.13;3.97;;;;;;;;;;10248145;28;20077;-62
2021/05/29 06:05:09;;;;;;;6.43;3.75;;;;;;;;;;10260497;28;20057;-62
2021/05/29 06:10:07;;;;;;;7.78;4.28;;;;;;;;;;10260283;28;20068;-63
2021/05/29 06:20:23;;;;;;;4.85;3.53;;;;;;;;;;10282332;28;20080;-63
2021/05/29 06:25:21;;;;;;;3.90;3.50;;;;;;;;;;10281344;28;20084;-64
2021/05/29 06:30:19;;;;;;;8.05;6.15;;;;;;;;;;10281116;28;20072;-63
2021/05/29 06:35:17;;;;;;;6.18;4.90;;;;;;;;;;10281197;28;20099;-62
2021/05/29 06:40:15;;;;;;;8.55;5.72;;;;;;;;;;10281698;28;20081;-62
2021/05/29 06:45:14;;;;;;;9.70;4.88;;;;;;;;;;10280347;28;20633;-62
2021/05/29 06:50:12;;;;;;;8.60;5.22;;;;;;;;;;10280292;28;20041;-63
2021/05/29 07:00:23;;;;;;;6.00;4.78;;;;;;;;;;10279654;28;20084;-62
2021/05/29 07:05:21;;;;;;;7.40;6.55;;;;;;;;;;10280376;28;20094;-62
2021/05/29 07:10:18;;;;;;;9.52;7.40;;;;;;;;;;10279642;28;20033;-62
2021/05/29 07:15:17;;;;;;;5.93;5.30;;;;;;;;;;10279569;28;20045;-61
2021/05/29 07:20:16;;;;;;;6.05;4.90;;;;;;;;;;10279077;28;20084;-61
2021/05/29 07:25:14;;;;;;;5.03;4.35;;;;;;;;;;10279020;28;20040;-61
2021/05/29 07:30:12;;;;;;;7.68;4.70;;;;;;;;;;10278733;28;20072;-61
2021/05/29 07:35:11;;;;;;;8.15;4.50;;;;;;;;;;10278468;28;20521;-61
2021/05/29 07:40:10;;;;;;;6.85;4.80;;;;;;;;;;10278713;28;20087;-62
2021/05/29 07:45:08;;;;;;;10.98;4.75;;;;;;;;;;10278773;28;20080;-61
2021/05/29 07:50:07;;;;;;;7.47;5.10;;;;;;;;;;10276533;28;20041;-60
2021/05/29 07:55:06;;;;;;;8.25;5.47;;;;;;;;;;10278371;28;20084;-61
2021/05/29 08:00:06;;;;;;;12.07;4.95;;;;;;;;;;10278020;28;20069;-62
2021/05/29 08:05:04;;;;;;;6.90;5.25;;;;;;;;;;10278413;28;20085;-61
2021/05/29 08:10:04;;;;;;;10.82;6.57;;;;;;;;;;10277483;28;20080;-61
2021/05/29 08:15:03;;;;;;;9.00;7.97;;;;;;;;;;10277186;28;20033;-62
2021/05/29 08:20:02;;;;;;;5.47;4.55;;;;;;;;;;10277434;28;20077;-62
2021/05/29 08:25:00;;;;;;;9.00;6.28;;;;;;;;;;10276327;28;20048;-62
2021/05/29 08:29:58;;;;;;;5.72;3.97;;;;;;;;;;10276692;28;20478;-61
2021/05/29 08:34:56;;;;;;;6.97;4.50;;;;;;;;;;10276603;28;20072;-61
2021/05/29 08:39:55;;;;;;;5.35;4.70;;;;;;;;;;10276300;28;20103;-62
2021/05/29 08:44:58;;;;;;;8.73;4.45;;;;;;;;;;10276327;28;20095;-62
2021/05/29 08:49:55;;;;;;;7.57;4.18;;;;;;;;;;10275657;28;20442;-61
2021/05/29 08:54:56;;;;;;;5.78;4.05;;;;;;;;;;10275601;28;20637;-61
2021/05/29 08:59:54;;;;;;;3.70;3.15;;;;;;;;;;10275407;28;20073;-60
2021/05/29 09:05:03;;;;;;;9.50;3.35;;;;;;;;;;10275268;28;20073;-61
2021/05/29 09:10:14;;;;;;;12.57;3.53;;;;;;;;;;10275529;28;20068;-61
2021/05/29 09:15:12;;;;;;;10.38;3.10;;;;;;;;;;10275316;28;20088;-61
2021/05/29 09:20:11;;;;;;;7.25;3.90;;;;;;;;;;10274509;28;20088;-61
2021/05/29 09:25:16;;;;;;;6.75;4.40;;;;;;;;;;10274536;28;20066;-61
2021/05/29 09:30:15;;;;;;;5.38;3.35;;;;;;;;;;10274721;28;20045;-61
2021/05/29 09:35:13;;;;;;;7.30;4.05;;;;;;;;;;10273980;28;20075;-60
2021/05/29 09:40:11;;;;;;;6.65;3.83;;;;;;;;;;10274323;28;20552;-61
2021/05/29 09:45:19;;;;;;;5.63;3.92;;;;;;;;;;10273776;28;20049;-62
2021/05/29 09:50:20;;;;;;;5.55;3.17;;;;;;;;;;10274104;28;20073;-62
2021/05/29 09:55:18;;;;;;;4.25;3.50;;;;;;;;;;10273274;28;20044;-61
2021/05/29 10:00:17;;;;;;;5.80;2.60;;;;;;;;;;10273963;28;20072;-62
2021/05/29 10:05:27;;;;;;;8.63;4.00;;;;;;;;;;10274075;28;20081;-61
2021/05/29 10:10:25;;;;;;;6.25;4.15;;;;;;;;;;10274052;28;20529;-61
2021/05/29 10:15:23;;;;;;;5.28;3.50;;;;;;;;;;10273634;28;20083;-62
2021/05/29 10:20:21;;;;;;;5.20;3.60;;;;;;;;;;10273074;28;20072;-61
2021/05/29 10:25:21;;;;;;;5.10;3.90;;;;;;;;;;10273267;28;20037;-60
2021/05/29 10:30:19;;;;;;;4.53;3.58;;;;;;;;;;10273171;28;20045;-60
2021/05/29 10:35:17;;;;;;;6.50;3.40;;;;;;;;;;10268294;28;20048;-60
2021/05/29 10:40:21;;;;;;;9.75;3.70;;;;;;;;;;10244025;28;20065;-61
2021/05/29 10:45:20;;;;;;;6.07;3.13;;;;;;;;;;10235062;28;20049;-60
2021/05/29 10:50:18;;;;;;;3.17;2.88;;;;;;;;;;10239898;28;20080;-60
2021/05/29 10:55:33;;;;;;;3.38;2.78;;;;;;;;;;10247033;28;20049;-60
2021/05/29 11:00:59;;;;;;;5.13;3.70;;;;;;;;;;10239871;28;20080;-60
2021/05/29 11:05:59;;;;;;;4.05;3.55;;;;;;;;;;10239174;28;20058;-59
2021/05/29 11:10:57;;;;;;;6.05;3.13;;;;;;;;;;10238576;28;20077;-60
2021/05/29 11:15:55;;;;;;;8.30;2.95;;;;;;;;;;10239305;28;20482;-60
2021/05/29 11:21:11;;;;;;;4.90;3.13;;;;;;;;;;10238776;28;20088;-61
2021/05/29 11:26:10;;;;;;;4.88;2.58;;;;;;;;;;10239400;28;20084;-63
2021/05/29 11:31:08;;;;;;;2.78;2.20;;;;;;;;;;10239014;28;20050;-56
2021/05/29 11:36:06;;;;;;;3.35;2.30;;;;;;;;;;10239680;28;20369;-56
2021/05/29 11:41:08;;;;;;;3.33;2.45;;;;;;;;;;10238732;28;20088;-56
2021/05/29 11:46:08;;;;;;;3.22;2.80;;;;;;;;;;10238399;28;20084;-52
2021/05/29 11:51:10;;;;;;;4.40;2.40;;;;;;;;;;10238131;28;20052;-54
2021/05/29 11:56:08;;;;;;;2.50;2.03;;;;;;;;;;10237384;28;20084;-56
2021/05/29 12:01:07;;;;;;;3.63;2.20;;;;;;;;;;10235943;28;20104;-52
2021/05/29 12:06:05;;;;;;;2.40;2.03;;;;;;;;;;10237430;28;20069;-56
2021/05/29 12:11:03;;;;;;;4.20;1.85;;;;;;;;;;10237508;28;20069;-56
2021/05/29 12:16:01;;;;;;;13.15;2.63;;;;;;;;;;10236498;28;20072;-55
2021/05/29 12:21:02;;;;;;;4.40;2.03;;;;;;;;;;10237187;28;20093;-56
2021/05/29 12:26:00;;;;;;;4.00;1.45;;;;;;;;;;10236444;28;20079;-56
2021/05/29 12:30:58;;;;;;;2.13;1.40;;;;;;;;;;10239784;28;20075;-56
2021/05/29 12:36:05;;;;;;;8.48;2.50;;;;;;;;;;10276186;28;20067;-55
2021/05/29 12:41:07;;;;;;;7.20;2.17;;;;;;;;;;10276416;28;20065;-52
2021/05/29 12:46:21;;;;;;;2.70;2.00;;;;;;;;;;10276492;28;20073;-55
2021/05/29 12:51:20;;;;;;;3.60;2.38;;;;;;;;;;10275937;28;20049;-57
2021/05/29 12:56:19;;;;;;;2.92;1.92;;;;;;;;;;10274948;28;20072;-56
2021/05/29 13:01:30;;;;;;;2.40;2.15;;;;;;;;;;10274792;28;20095;-55
2021/05/29 13:11:55;;;;;;;10.60;3.08;;;;;;;;;;10268342;28;20072;-55
2021/05/29 13:16:54;;;;;;;3.80;2.72;;;;;;;;;;10264580;28;20076;-57
2021/05/29 13:21:57;;;;;;;3.35;2.25;;;;;;;;;;10276743;28;20079;-53
2021/05/29 13:26:55;;;;;;;2.58;2.03;;;;;;;;;;10271791;28;20080;-55
2021/05/29 13:31:52;;;;;;;3.55;2.10;;;;;;;;;;10276294;28;20071;-55
2021/05/29 13:36:50;;;;;;;3.75;2.08;;;;;;;;;;10273831;28;20094;-56
2021/05/29 13:41:49;;;;;;;3.97;2.30;;;;;;;;;;10267151;28;20131;-56
2021/05/29 13:46:47;;;;;;;2.90;2.15;;;;;;;;;;10271309;28;20091;-56
2021/05/29 13:51:47;;;;;;;4.00;2.42;;;;;;;;;;10263943;28;20065;-56
2021/05/29 13:56:45;;;;;;;2.13;1.90;;;;;;;;;;10262997;28;20056;-56
2021/05/29 14:01:43;;;;;;;3.78;2.00;;;;;;;;;;10250080;28;20092;-56
2021/05/29 14:06:44;;;;;;;4.35;2.15;;;;;;;;;;10247837;28;20489;-55
2021/05/29 14:11:43;;;;;;;5.00;3.78;;;;;;;;;;10265489;28;20068;-52
2021/05/29 14:16:44;;;;;;;5.80;3.13;;;;;;;;;;10253687;28;20068;-50
2021/05/29 14:21:43;;;;;;;2.38;1.88;;;;;;;;;;10262947;28;20081;-52
2021/05/29 14:26:41;;;;;;;2.50;2.30;;;;;;;;;;10264731;28;20068;-55
2021/05/29 14:31:39;;;;;;;3.83;1.75;;;;;;;;;;10271728;28;20072;-56
2021/05/29 14:36:37;;;;;;;3.28;2.72;;;;;;;;;;10262352;28;20105;-52
2021/05/29 14:41:36;;;;;;;2.03;1.83;;;;;;;;;;10267997;28;20540;-55
2021/05/29 14:46:34;;;;;;;5.68;2.90;;;;;;;;;;10282590;28;20095;-50
2021/05/29 14:51:35;;;;;;;9.52;4.68;;;;;;;;;;10269509;28;20406;-55
2021/05/29 14:56:33;;;;;;;4.20;1.92;;;;;;;;;;10261579;28;20480;-55
2021/05/29 15:01:37;;;;;;;6.63;4.40;;;;;;;;;;10259436;28;20279;-54
2021/05/29 15:06:36;;;;;;;5.38;3.03;;;;;;;;;;10267859;28;20072;-57
2021/05/29 15:11:34;;;;;;;2.90;2.60;;;;;;;;;;10247714;28;20084;-56
2021/05/29 15:16:32;;;;;;;8.57;3.75;;;;;;;;;;10268626;28;20076;-55
2021/05/29 15:21:31;;;;;;;5.15;2.75;;;;;;;;;;10252346;28;20775;-54
2021/05/29 15:26:32;;;;;;;6.20;3.50;;;;;;;;;;10264844;28;20072;-58
2021/05/29 15:31:30;;;;;;;8.25;6.45;;;;;;;;;;10275393;28;20048;-58
2021/05/29 15:36:28;;;;;;;3.38;3.08;;;;;;;;;;10271609;28;20497;-56
2021/05/29 15:41:28;;;;;;;8.77;6.80;;;;;;;;;;10278267;28;20661;-58
2021/05/29 15:46:26;;;;;;;10.15;7.95;;;;;;;;;;10278781;28;20480;-57
2021/05/29 15:51:24;;;;;;;3.67;2.97;;;;;;;;;;10278462;28;20083;-57
2021/05/29 15:56:22;;;;;;;8.55;3.22;;;;;;;;;;10277911;28;20045;-58
2021/05/29 16:01:21;;;;;;;6.88;3.97;;;;;;;;;;10276997;28;20107;-55
2021/05/29 16:06:19;;;;;;;8.23;6.22;;;;;;;;;;10273115;28;20069;-55
2021/05/29 16:11:17;;;;;;;4.55;2.53;;;;;;;;;;10279421;28;20080;-58
2021/05/29 16:16:16;;;;;;;4.72;3.20;;;;;;;;;;10278836;28;20413;-58
2021/05/29 16:21:15;;;;;;;2.72;2.25;;;;;;;;;;10278511;28;20080;-57
2021/05/29 16:26:13;;;;;;;5.78;3.60;;;;;;;;;;10278039;28;20066;-60
2021/05/29 16:31:11;;;;;;;5.60;2.30;;;;;;;;;;10276876;28;20052;-59
2021/05/29 16:36:12;;;;;;;4.30;2.50;;;;;;;;;;10277341;28;20072;-59
2021/05/29 16:41:13;;;;;;;2.72;1.90;;;;;;;;;;10274078;28;20088;-57
2021/05/29 16:46:12;;;;;;;6.22;2.50;;;;;;;;;;10251082;28;20079;-60
2021/05/29 16:51:11;;;;;;;5.05;3.47;;;;;;;;;;10255320;28;20072;-60
2021/05/29 16:56:09;;;;;;;7.05;3.53;;;;;;;;;;10250056;28;20080;-60
2021/05/29 17:01:10;;;;;;;6.80;2.55;;;;;;;;;;10251537;28;20064;-60
2021/05/29 17:06:09;;;;;;;8.63;2.20;;;;;;;;;;10256826;28;20068;-59
2021/05/29 17:11:09;;;;;;;2.70;2.50;;;;;;;;;;10274858;28;20075;-60
2021/05/29 17:16:09;;;;;;;4.53;3.20;;;;;;;;;;10257754;28;20064;-59
2021/05/29 17:21:07;;;;;;;2.20;2.00;;;;;;;;;;10272267;28;20076;-58
2021/05/29 17:26:07;;;;;;;4.55;2.22;;;;;;;;;;10264021;28;20615;-57
2021/05/29 17:31:06;;;;;;;4.57;3.13;;;;;;;;;;10275857;28;20057;-56
2021/05/29 17:36:05;;;;;;;7.60;2.60;;;;;;;;;;10275324;28;20071;-56
2021/05/29 17:41:03;;;;;;;5.47;2.28;;;;;;;;;;10274350;28;20548;-59
2021/05/29 17:46:01;;;;;;;3.97;2.30;;;;;;;;;;10274924;28;20041;-58
2021/05/29 17:51:05;;;;;;;5.10;2.30;;;;;;;;;;10262224;28;20061;-54
2021/05/29 17:56:03;;;;;;;3.72;2.50;;;;;;;;;;10247688;28;20540;-57
2021/05/29 18:01:01;;;;;;;5.72;2.88;;;;;;;;;;10272577;28;20103;-57
2021/05/29 18:05:59;;;;;;;8.60;2.72;;;;;;;;;;10272474;28;20084;-57
2021/05/29 18:10:58;;;;;;;3.83;1.92;;;;;;;;;;10275090;28;20037;-58
2021/05/29 18:15:56;;;;;;;3.97;1.27;;;;;;;;;;10272341;28;20079;-58
2021/05/29 18:20:54;;;;;;;5.03;2.25;;;;;;;;;;10274655;28;20073;-59
2021/05/29 18:25:52;;;;;;;7.10;2.70;;;;;;;;;;10272897;28;20065;-56
2021/05/29 18:30:51;;;;;;;3.67;2.20;;;;;;;;;;10275230;28;20099;-54
2021/05/29 18:35:55;;;;;;;6.00;1.90;;;;;;;;;;10273136;28;20061;-56
2021/05/29 18:40:52;;;;;;;5.75;2.80;;;;;;;;;;10272118;28;20082;-53
2021/05/29 18:45:51;;;;;;;4.70;2.55;;;;;;;;;;10257172;28;20083;-59
2021/05/29 18:50:55;;;;;;;2.40;1.80;;;;;;;;;;10242257;28;20081;-59
2021/05/29 18:55:54;;;;;;;4.00;2.10;;;;;;;;;;10253811;28;20060;-57
2021/05/29 19:06:25;;;;;;;2.65;1.83;;;;;;;;;;10215575;28;20469;-58
2021/05/29 19:11:22;;;;;;;;;;;;;;;;;;10277508;28;20041;-58
2021/05/29 19:16:21;;;;;;;8.40;2.63;;;;;;;;;;10276999;28;19952;-61
2021/05/29 19:21:19;;;;;;;2.90;1.80;;;;;;;;;;10281024;28;20084;-60
2021/05/29 19:26:37;;;;;;;6.65;2.40;;;;;;;;;;10279497;28;20099;-59
2021/05/29 19:31:43;;;;;;;5.90;2.38;;;;;;;;;;10279775;28;20064;-59
2021/05/29 19:41:58;;;;;;;4.40;2.40;;;;;;;;;;10274093;28;20077;-61
2021/05/29 20:13:26;;;;;;;4.75;2.25;;;;;;;;;;10277721;28;20081;-60
2021/05/29 20:28:56;;;;;;;6.47;2.47;;;;;;;;;;10278363;28;20053;-60
2021/05/29 20:39:09;;;;;;;10.48;1.88;;;;;;;;;;10230078;28;20418;-60
2021/05/29 20:44:11;;;;;;;10.50;2.30;;;;;;;;;;10276865;28;20084;-59
2021/05/29 20:49:10;;;;;;;9.35;2.72;;;;;;;;;;10276777;28;20041;-60
2021/05/29 20:54:10;;;;;;;3.50;2.00;;;;;;;;;;10278023;28;20083;-59
2021/05/29 20:59:09;;;;;;;6.18;2.65;;;;;;;;;;10274034;28;20045;-59
2021/05/29 21:04:06;;;;;;;2.55;2.10;;;;;;;;;;10275611;28;20080;-59
2021/05/29 21:09:05;;;;;;;8.10;2.63;;;;;;;;;;10276911;28;20052;-59
2021/05/29 21:14:06;;;;;;;3.95;2.30;;;;;;;;;;10275980;28;20088;-59
2021/05/29 21:24:21;;;;;;;9.02;3.13;;;;;;;;;;10273392;28;20079;-60
2021/05/29 21:29:20;;;;;;;6.05;2.00;;;;;;;;;;10272557;28;20080;-59
2021/05/29 21:34:18;;;;;;;6.57;1.67;;;;;;;;;;10275513;28;20083;-60
2021/05/29 21:39:16;;;;;;;5.68;2.40;;;;;;;;;;10268013;28;20060;-54
2021/05/29 21:44:16;;;;;;;2.47;2.00;;;;;;;;;;10276097;28;20076;-56
2021/05/29 21:49:15;;;;;;;5.50;1.98;;;;;;;;;;10276698;28;20508;-56
2021/05/29 21:54:13;;;;;;;6.25;2.25;;;;;;;;;;10276440;28;20041;-56
2021/05/29 21:59:11;;;;;;;6.70;2.50;;;;;;;;;;10256086;28;20199;-57
2021/05/29 22:04:10;;;;;;;2.80;1.85;;;;;;;;;;10235355;28;20089;-53
2021/05/29 22:09:10;;;;;;;5.75;1.92;;;;;;;;;;10234122;28;20042;-58
2021/05/29 22:19:26;;;;;;;2.70;2.50;;;;;;;;;;10228228;28;20085;-56
2021/05/29 22:29:41;;;;;;;8.00;2.63;;;;;;;;;;10234440;28;20053;-54
2021/05/29 22:34:42;;;;;;;10.55;2.58;;;;;;;;;;10234089;28;20403;-58
2021/05/29 22:39:40;;;;;;;4.25;2.33;;;;;;;;;;10261863;28;20072;-51
2021/05/29 22:44:39;;;;;;;5.07;2.03;;;;;;;;;;10282320;28;20072;-55
2021/05/29 22:49:36;;;;;;;2.85;2.05;;;;;;;;;;10282058;28;20067;-57
2021/05/29 22:54:35;;;;;;;5.43;2.00;;;;;;;;;;10282035;28;20041;-56
2021/05/29 22:59:33;;;;;;;3.63;1.75;;;;;;;;;;10281614;28;20064;-58
2021/05/29 23:04:31;;;;;;;3.70;1.63;;;;;;;;;;10280632;28;20512;-58
2021/05/29 23:09:29;;;;;;;2.30;1.50;;;;;;;;;;10280876;28;20045;-58
2021/05/29 23:14:28;;;;;;;3.45;2.22;;;;;;;;;;10281500;28;20465;-55
2021/05/29 23:19:26;;;;;;;2.65;1.67;;;;;;;;;;10282344;28;20037;-58
2021/05/29 23:24:24;;;;;;;3.80;1.73;;;;;;;;;;10281348;28;20087;-59
2021/05/29 23:29:22;;;;;;;4.00;1.77;;;;;;;;;;10281979;28;20049;-56
2021/05/29 23:34:21;;;;;;;3.88;2.00;;;;;;;;;;10281611;28;20422;-56
2021/05/29 23:39:18;;;;;;;2.00;1.63;;;;;;;;;;10281568;28;20041;-58
2021/05/29 23:44:16;;;;;;;1.65;1.55;;;;;;;;;;10281362;28;20080;-58
2021/05/29 23:49:14;;;;;;;2.08;1.65;;;;;;;;;;10281103;28;20040;-57
2021/05/29 23:54:13;;;;;;;6.10;2.42;;;;;;;;;;10279678;28;20436;-57
2021/05/29 23:59:20;;;;;;;2.78;2.30;;;;;;;;;;10280832;28;20053;-56
